LDZA/ZAG METAR and TAF weather

Enter ICAO airport designator
Station Type Date Time Source
LDZA METAR 2019/08/25 06:30 UTC NOAA

LDZA 250630Z 26006KT CAVOK 21/18 Q1020 NOSIG


Station Type Date Time Source
LDZA Decoded METAR 2019/08/25 06:30 UTC NOAA

Station name not available
Aug 25, 2019 - 02:30 AM EDT / 2019.08.25 0630 UTC
Wind: from the W (260 degrees) at 7 MPH (6 KT):0
Visibility: greater than 7 mile(s):0
Temperature: 69 F (21 C)
Dew Point: 64 F (18 C)
Relative Humidity: 82%
Pressure (altimeter): 30.12 in. Hg (1020 hPa)
ob: LDZA 250630Z 26006KT CAVOK 21/18 Q1020 NOSIG
cycle: 6

Station Type Date Time Source
LDZA TAF 2019/08/25 06:31 UTC NOAA

TAF LDZA 250525Z 2506/2606 05005KT CAVOK TX30/2513Z TN18/2604Z PROB30
TEMPO 2514/2521 VRB10KT TSRA FEW040CB BKN045 PROB30
TEMPO 2602/2605 TS FEW050CB

Example: see airport list